Time;durP1;ratioP1;P1;durP2;ratioP2;P2;SDS_P1;SDS_P2;PMS_P1;PMS_P2;Temp;Humidity;BMP_temperature;BMP_pressure;BME280_temperature;BME280_humidity;BME280_pressure;Samples;Min_cycle;Max_cycle;Signal;HPM_P1;HPM_P2
2022/02/01 00:02:07;;;;;;;;;4.75;3.00;;;;;20.67;32.96;102391.88;5067223;28;51067;-43
2022/02/01 00:15:17;;;;;;;;;3.00;3.00;;;;;20.59;32.95;102373.53;5060635;28;51020;-44
2022/02/01 00:20:19;;;;;;;;;3.75;3.75;;;;;20.56;32.66;102367.56;5066805;28;51398;-42
2022/02/01 00:34:02;;;;;;;;;3.00;3.00;;;;;20.50;33.05;102377.41;5065872;28;51269;-43
2022/02/01 00:39:05;;;;;;;;;4.50;4.50;;;;;20.46;33.06;102387.94;5065186;28;51761;-42
2022/02/01 00:41:33;;;;;;;;;4.00;4.00;;;;;20.46;32.79;102384.31;5065320;28;51340;-42
2022/02/01 00:44:00;;;;;;;;;4.00;3.50;;;;;20.44;33.22;102380.91;5068545;28;51089;-46
2022/02/01 00:46:25;;;;;;;;;4.25;3.50;;;;;20.43;33.43;102384.72;5061848;28;51041;-46
2022/02/01 00:48:51;;;;;;;;;5.00;3.00;;;;;20.42;32.93;102381.06;5070278;28;51373;-44
2022/02/01 00:51:17;;;;;;;;;4.75;2.50;;;;;20.41;33.04;102392.22;5062072;28;51915;-44
2022/02/01 00:53:43;;;;;;;;;6.25;3.50;;;;;20.40;33.26;102387.78;5060087;28;51226;-43
2022/02/01 00:56:09;;;;;;;;;2.75;2.50;;;;;20.39;32.87;102400.69;5064647;28;51182;-50
2022/02/01 00:58:36;;;;;;;;;5.00;4.25;;;;;20.37;33.46;102413.78;5064547;28;51708;-45
2022/02/01 01:01:01;;;;;;;;;4.00;3.00;;;;;20.37;33.30;102412.91;5056388;28;50952;-44
2022/02/01 01:03:27;;;;;;;;;5.00;3.25;;;;;20.35;33.27;102413.09;5067085;28;51215;-53
2022/02/01 01:05:53;;;;;;;;;5.00;3.25;;;;;20.34;33.13;102413.28;5066168;28;51098;-43
2022/02/01 01:08:19;;;;;;;;;4.00;3.00;;;;;20.33;33.48;102430.84;5067842;28;51687;-44
2022/02/01 01:10:44;;;;;;;;;5.00;3.50;;;;;20.33;32.98;102428.09;5066027;28;51109;-50
2022/02/01 01:15:50;;;;;;;;;5.50;3.75;;;;;20.31;33.04;102420.00;5064528;27;51162;-46
2022/02/01 01:45:35;;;;;;;;;3.00;2.75;;;;;20.17;33.22;102396.03;5054459;28;51149;-44
2022/02/01 01:53:28;;;;;;;;;2.75;2.75;;;;;20.13;33.24;102390.06;5068252;28;50954;-43
2022/02/01 01:55:54;;;;;;;;;4.75;2.00;;;;;20.12;33.04;102390.25;5073149;27;50982;-44
2022/02/01 01:58:22;;;;;;;;;2.75;2.75;;;;;20.12;33.15;102399.34;5065972;28;52339;-43
2022/02/01 02:03:34;;;;;;;;;4.25;3.00;;;;;20.10;33.28;102386.78;5062440;28;51396;-44
2022/02/01 02:05:59;;;;;;;;;3.50;3.50;;;;;20.08;33.40;102389.72;5070738;27;50903;-46
2022/02/01 02:08:25;;;;;;;;;5.00;3.75;;;;;20.08;32.96;102386.97;5075037;28;50937;-46
2022/02/01 02:15:55;;;;;;;;;4.50;3.50;;;;;20.05;33.10;102389.25;5067795;28;51178;-43
2022/02/01 02:18:22;;;;;;;;;5.25;3.00;;;;;20.04;33.03;102377.38;5072405;28;51141;-48
2022/02/01 02:20:51;;;;;;;;;3.00;2.00;;;;;20.03;33.11;102377.59;5059661;28;51010;-44
2022/02/01 02:23:17;;;;;;;;;3.50;3.00;;;;;20.02;33.32;102390.47;5067424;28;51067;-43
2022/02/01 02:25:43;;;;;;;;;4.75;2.00;;;;;20.02;33.33;102401.47;5070564;27;51002;-45
2022/02/01 02:28:12;;;;;;;;;2.75;2.75;;;;;20.01;33.25;102397.03;5071398;28;50984;-43
2022/02/01 02:30:37;;;;;;;;;4.00;2.00;;;;;20.01;33.36;102393.38;5063703;28;51629;-43
2022/02/01 02:33:06;;;;;;;;;3.75;2.25;;;;;19.99;33.35;102385.31;5067284;28;50992;-46
2022/02/01 02:35:36;;;;;;;;;2.25;2.25;;;;;19.99;33.35;102399.06;5064034;28;51157;-49
2022/02/01 02:38:12;;;;;;;;;2.50;2.50;;;;;19.98;33.14;102393.75;5067879;28;51142;-44
2022/02/01 02:45:58;;;;;;;;;2.50;2.00;;;;;19.96;33.44;102373.84;5064387;28;51090;-45
2022/02/01 02:48:24;;;;;;;;;4.50;3.75;;;;;19.94;33.28;102382.28;5069590;28;50870;-44
2022/02/01 02:50:49;;;;;;;;;2.75;2.75;;;;;19.94;33.44;102382.28;5091446;27;51078;-47
2022/02/01 02:53:14;;;;;;;;;4.75;3.00;;;;;19.93;33.33;102363.22;5059620;28;51074;-43
2022/02/01 02:55:40;;;;;;;;;2.50;2.50;;;;;19.92;33.48;102348.59;5068929;27;50977;-44
2022/02/01 02:58:05;;;;;;;;;2.25;2.25;;;;;19.90;33.42;102342.41;5062083;28;51161;-44
2022/02/01 03:00:31;;;;;;;;;5.00;4.50;;;;;19.89;33.55;102333.28;5064032;28;52142;-47
2022/02/01 03:02:57;;;;;;;;;4.00;3.50;;;;;19.89;33.36;102333.28;5069957;28;51110;-45
2022/02/01 03:05:22;;;;;;;;;5.75;2.75;;;;;19.88;33.50;102336.22;5066558;28;51150;-46
2022/02/01 03:07:47;;;;;;;;;4.25;2.75;;;;;19.87;33.58;102343.63;5094787;27;51316;-46
2022/02/01 03:10:13;;;;;;;;;2.00;2.00;;;;;19.87;33.36;102345.53;5067984;28;52226;-47
2022/02/01 03:20:41;;;;;;;;;4.25;2.00;;;;;19.85;33.76;102342.09;5071956;28;51054;-45
2022/02/01 03:23:07;;;;;;;;;5.25;4.50;;;;;19.83;33.48;102333.19;5066022;28;51114;-45
2022/02/01 03:25:32;;;;;;;;;4.75;2.00;;;;;19.83;33.66;102322.19;5066314;28;51096;-45
2022/02/01 03:27:57;;;;;;;;;1.50;1.50;;;;;19.81;33.75;102322.38;5074704;28;51178;-45
2022/02/01 03:30:23;;;;;;;;;3.00;3.00;;;;;19.80;33.36;102317.91;5059477;28;51229;-48
2022/02/01 03:32:49;;;;;;;;;2.00;2.00;;;;;19.81;33.60;102318.78;5066245;28;51106;-44
2022/02/01 03:35:15;;;;;;;;;3.50;2.00;;;;;19.79;33.58;102332.69;5066394;27;51116;-47
2022/02/01 03:37:40;;;;;;;;;2.00;2.00;;;;;19.80;33.77;102328.03;5074290;28;51046;-45
2022/02/01 03:40:10;;;;;;;;;3.00;3.00;;;;;19.78;33.91;102330.97;5068483;28;51723;-46
2022/02/01 03:42:35;;;;;;;;;4.50;3.00;;;;;19.77;33.71;102334.75;5075921;28;51165;-46
2022/02/01 03:45:01;;;;;;;;;3.00;3.00;;;;;19.77;33.80;102339.41;5069013;28;51124;-43
2022/02/01 03:47:31;;;;;;;;;4.00;2.00;;;;;19.77;33.51;102350.41;5061008;28;51286;-45
2022/02/01 03:49:58;;;;;;;;;4.00;2.75;;;;;19.76;33.71;102329.44;5064901;28;51319;-48
2022/02/01 03:52:23;;;;;;;;;3.50;2.75;;;;;19.75;33.74;102320.34;5065600;28;51074;-48
2022/02/01 03:54:49;;;;;;;;;5.00;1.75;;;;;19.75;33.56;102314.84;5063356;28;51251;-44
2022/02/01 03:57:15;;;;;;;;;4.50;1.50;;;;;19.74;33.63;102298.53;5070521;28;50938;-50
2022/02/01 03:59:43;;;;;;;;;2.25;2.00;;;;;19.73;33.82;102296.81;5068935;28;52774;-43
2022/02/01 04:02:08;;;;;;;;;3.75;3.00;;;;;19.73;33.89;102303.19;5063716;28;51383;-45
2022/02/01 04:04:34;;;;;;;;;2.00;2.00;;;;;19.72;33.85;102300.63;5065866;28;50996;-43
2022/02/01 04:07:01;;;;;;;;;3.25;2.00;;;;;19.71;33.61;102299.75;5058106;28;51178;-44
2022/02/01 04:09:27;;;;;;;;;1.25;1.25;;;;;19.70;33.68;102298.06;5058585;28;50866;-44
2022/02/01 04:11:54;;;;;;;;;3.00;2.00;;;;;19.70;33.65;102300.81;5065577;28;51278;-43
2022/02/01 04:14:26;;;;;;;;;3.00;2.25;;;;;19.70;33.97;102286.19;5067895;28;50999;-43
2022/02/01 04:16:51;;;;;;;;;3.25;3.00;;;;;19.69;33.67;102295.47;5068573;28;52062;-47
2022/02/01 04:19:17;;;;;;;;;3.50;3.25;;;;;19.68;33.79;102294.59;5061530;28;50978;-46
2022/02/01 04:21:50;;;;;;;;;2.00;2.00;;;;;19.67;34.03;102295.66;5068567;28;51118;-46
2022/02/01 04:24:16;;;;;;;;;2.00;1.00;;;;;19.67;34.01;102284.66;5065250;28;51163;-43
2022/02/01 04:26:41;;;;;;;;;1.50;1.50;;;;;19.68;33.85;102282.75;5062962;28;51111;-43
2022/02/01 04:29:07;;;;;;;;;1.50;1.50;;;;;19.67;34.06;102289.28;5063010;28;51037;-44
2022/02/01 04:31:32;;;;;;;;;4.25;2.25;;;;;19.66;33.80;102295.84;5067405;28;50917;-44
2022/02/01 04:33:57;;;;;;;;;2.00;2.00;;;;;19.66;34.02;102287.59;5065503;28;51124;-43
2022/02/01 04:36:23;;;;;;;;;4.50;2.50;;;;;19.64;34.00;102303.41;5058362;28;50981;-47
2022/02/01 04:38:56;;;;;;;;;2.00;2.00;;;;;19.64;33.73;102297.91;5061043;28;51928;-45
2022/02/01 04:41:22;;;;;;;;;3.25;2.00;;;;;19.63;33.84;102298.97;5066423;28;50932;-44
2022/02/01 04:43:48;;;;;;;;;3.00;2.00;;;;;19.63;34.05;102301.69;5061461;28;51049;-43
2022/02/01 04:46:14;;;;;;;;;4.00;2.00;;;;;19.62;34.07;102298.09;5067786;28;51230;-44
2022/02/01 04:48:40;;;;;;;;;5.00;3.00;;;;;19.62;34.00;102297.25;5062149;28;50939;-43
2022/02/01 04:51:06;;;;;;;;;3.00;3.00;;;;;19.60;33.88;102289.19;5067904;28;51127;-45
2022/02/01 04:53:31;;;;;;;;;1.00;1.00;;;;;19.59;34.17;102282.84;5065336;28;51224;-43
2022/02/01 04:55:57;;;;;;;;;3.00;2.00;;;;;19.59;34.18;102281.94;5058401;28;51203;-43
2022/02/01 04:58:23;;;;;;;;;2.00;1.00;;;;;19.59;34.18;102280.09;5080865;27;52933;-43
2022/02/01 05:00:50;;;;;;;;;2.50;2.25;;;;;19.58;34.06;102255.50;5086410;27;50999;-44
2022/02/01 05:03:16;;;;;;;;;2.25;2.00;;;;;19.58;34.29;102250.84;5060028;28;51091;-52
2022/02/01 05:05:42;;;;;;;;;2.00;2.00;;;;;19.57;34.19;102251.03;5068106;27;51043;-45
2022/02/01 05:08:09;;;;;;;;;2.00;2.00;;;;;19.56;34.05;102261.19;5070387;28;51129;-43
2022/02/01 05:10:37;;;;;;;;;2.00;2.00;;;;;19.56;34.20;102263.94;5068157;28;51465;-45
2022/02/01 05:13:40;;;;;;;;;2.50;1.00;;;;;19.55;33.97;102256.72;5063823;28;51053;-43
2022/02/01 05:16:16;;;;;;;;;1.00;1.00;;;;;19.55;34.38;102259.47;5068158;27;51169;-44
2022/02/01 05:18:47;;;;;;;;;2.75;2.00;;;;;19.54;34.28;102273.38;5068253;28;51203;-45
2022/02/01 05:21:21;;;;;;;;;1.00;1.00;;;;;19.54;34.32;102278.88;5071207;27;50925;-44
2022/02/01 05:23:48;;;;;;;;;2.00;2.00;;;;;19.52;34.55;102284.56;5061243;27;51238;-44
2022/02/01 05:26:13;;;;;;;;;2.25;1.75;;;;;19.52;34.46;102281.81;5071441;28;51202;-44
2022/02/01 05:28:41;;;;;;;;;4.75;2.75;;;;;19.52;34.32;102275.47;5070510;27;52533;-44
2022/02/01 05:31:07;;;;;;;;;3.00;1.00;;;;;19.51;34.34;102271.84;5074917;28;51054;-43
2022/02/01 05:33:33;;;;;;;;;2.00;2.00;;;;;19.51;34.48;102266.34;5065814;28;50898;-45
2022/02/01 05:36:00;;;;;;;;;2.25;2.00;;;;;19.49;34.36;102271.19;5068283;28;51170;-43
2022/02/01 05:38:25;;;;;;;;;2.00;1.50;;;;;19.49;34.50;102275.84;5068227;28;51747;-45
2022/02/01 05:40:51;;;;;;;;;1.00;1.00;;;;;19.49;34.38;102282.19;5068896;28;51143;-44
2022/02/01 05:43:22;;;;;;;;;2.75;2.75;;;;;19.50;34.42;102269.28;5063122;28;50944;-45
2022/02/01 05:45:48;;;;;;;;;2.25;2.25;;;;;19.48;34.56;102254.84;5071322;27;51226;-44
2022/02/01 05:48:15;;;;;;;;;2.50;1.75;;;;;19.47;34.56;102256.75;5070257;28;51898;-45
2022/02/01 05:50:40;;;;;;;;;3.50;2.00;;;;;19.48;34.26;102255.72;5069610;28;51421;-44
2022/02/01 05:53:06;;;;;;;;;4.00;1.50;;;;;19.47;34.10;102247.66;5060741;28;51227;-46
2022/02/01 05:55:34;;;;;;;;;5.50;4.00;;;;;19.46;34.01;102251.44;5068106;27;51054;-43
2022/02/01 05:58:00;;;;;;;;;4.75;3.00;;;;;19.43;33.72;102241.66;5070283;28;51994;-43
2022/02/01 06:00:26;;;;;;;;;5.50;3.00;;;;;19.39;33.61;102242.22;5067556;28;51040;-44
2022/02/01 06:02:51;;;;;;;;;3.50;2.25;;;;;19.36;33.64;102223.34;5062526;28;51239;-44
2022/02/01 06:05:17;;;;;;;;;8.50;3.50;;;;;19.31;33.26;102216.50;5069010;28;51064;-44
2022/02/01 06:07:43;;;;;;;;;4.00;3.00;;;;;19.26;33.50;102223.56;5070058;28;51719;-44
2022/02/01 06:10:09;;;;;;;;;5.75;4.00;;;;;19.22;33.59;102227.72;5067186;28;50984;-44
2022/02/01 06:12:42;;;;;;;;;3.75;3.75;;;;;19.18;33.53;102223.63;5066256;28;51120;-44
2022/02/01 06:15:09;;;;;;;;;4.50;2.00;;;;;19.14;33.32;102222.28;5064348;27;51202;-43
2022/02/01 06:17:34;;;;;;;;;3.25;2.25;;;;;19.10;33.62;102226.41;5070518;28;51805;-45
2022/02/01 06:20:02;;;;;;;;;3.00;2.25;;;;;19.06;33.58;102216.81;5061067;28;51105;-44
2022/02/01 06:22:27;;;;;;;;;2.75;1.50;;;;;19.02;33.66;102235.56;5070301;28;51521;-45
2022/02/01 06:24:53;;;;;;;;;4.50;2.75;;;;;18.98;33.50;102210.34;5071466;27;51129;-43
2022/02/01 06:27:18;;;;;;;;;4.50;3.00;;;;;18.96;33.66;102208.78;5067396;28;51586;-45
2022/02/01 06:29:44;;;;;;;;;8.00;3.50;;;;;18.93;33.63;102220.16;5060135;28;51366;-43
2022/02/01 06:32:09;;;;;;;;;5.00;3.75;;;;;18.90;33.69;102226.84;5063696;28;51527;-43
2022/02/01 06:34:35;;;;;;;;;4.50;4.00;;;;;18.85;33.58;102211.94;5059416;28;51071;-47
2022/02/01 06:37:00;;;;;;;;;6.75;3.50;;;;;18.82;33.80;102221.41;5051409;28;52780;-42
2022/02/01 06:39:27;;;;;;;;;7.00;3.75;;;;;18.79;33.88;102213.53;5055817;28;51804;-43
2022/02/01 06:41:53;;;;;;;;;5.00;5.00;;;;;18.77;34.20;102214.75;5056874;28;51003;-46
2022/02/01 06:44:18;;;;;;;;;5.75;5.00;;;;;18.76;34.52;102205.66;5057655;28;52044;-45
2022/02/01 06:46:44;;;;;;;;;5.00;4.00;;;;;18.81;34.62;102218.84;5057877;28;51643;-43
2022/02/01 06:49:11;;;;;;;;;2.50;1.00;;;;;18.88;34.51;102223.44;5067644;28;51051;-45
2022/02/01 06:51:40;;;;;;;;;3.00;3.00;;;;;18.96;34.64;102206.91;5072678;28;51080;-44
2022/02/01 06:54:06;;;;;;;;;2.75;2.25;;;;;19.04;34.60;102217.00;5060793;28;51089;-44
2022/02/01 06:56:33;;;;;;;;;3.00;1.25;;;;;19.12;34.68;102214.22;5064760;28;54140;-46
2022/02/01 06:59:03;;;;;;;;;2.25;2.00;;;;;19.22;34.74;102205.75;5058558;28;51497;-42
2022/02/01 07:01:29;;;;;;;;;1.00;1.00;;;;;19.30;34.66;102211.19;5065173;28;50990;-42
2022/02/01 07:03:55;;;;;;;;;3.25;2.00;;;;;19.41;34.86;102212.66;5054102;28;51213;-45
2022/02/01 07:06:21;;;;;;;;;2.75;1.75;;;;;19.49;35.21;102213.47;5061289;28;51337;-45
2022/02/01 07:08:48;;;;;;;;;2.00;2.00;;;;;19.58;35.15;102214.28;5058795;28;51132;-44
2022/02/01 07:11:16;;;;;;;;;2.00;1.75;;;;;19.68;35.41;102225.03;5052441;28;51185;-45
2022/02/01 07:13:41;;;;;;;;;2.00;2.00;;;;;19.75;35.43;102226.88;5058794;28;51275;-46
2022/02/01 07:16:07;;;;;;;;;1.50;1.50;;;;;19.84;35.29;102219.41;5063138;28;51928;-45
2022/02/01 07:18:33;;;;;;;;;1.00;1.00;;;;;19.92;35.39;102213.84;5064073;27;51451;-45
2022/02/01 07:20:59;;;;;;;;;2.00;2.00;;;;;19.99;35.28;102206.53;5065325;28;51025;-46
2022/02/01 07:23:26;;;;;;;;;2.00;1.25;;;;;20.06;35.33;102207.50;5065483;28;51061;-43
2022/02/01 07:25:54;;;;;;;;;2.50;2.00;;;;;20.14;35.32;102209.34;5056952;28;51225;-45
2022/02/01 07:28:22;;;;;;;;;2.25;2.00;;;;;20.22;35.26;102213.88;5070899;28;51352;-44
2022/02/01 07:30:48;;;;;;;;;2.00;2.00;;;;;20.30;35.40;102233.06;5054959;28;51020;-43
2022/02/01 07:33:14;;;;;;;;;1.00;1.00;;;;;20.34;35.57;102227.00;5067825;28;51050;-46
2022/02/01 07:35:39;;;;;;;;;1.75;1.00;;;;;20.42;35.49;102220.53;5068199;27;51546;-45
2022/02/01 07:38:07;;;;;;;;;3.00;3.00;;;;;20.50;35.89;102222.38;5056836;28;51008;-44
2022/02/01 07:40:33;;;;;;;;;4.25;2.25;;;;;20.57;35.49;102220.59;5072705;27;52816;-44
2022/02/01 07:42:58;;;;;;;;;3.00;3.00;;;;;20.63;35.46;102206.06;5071999;28;51337;-45
2022/02/01 07:45:28;;;;;;;;;2.75;2.75;;;;;20.69;35.40;102191.53;5058352;28;51501;-45
2022/02/01 07:47:59;;;;;;;;;4.75;2.25;;;;;20.73;35.49;102196.44;5055070;28;52361;-49
2022/02/01 07:50:25;;;;;;;;;4.00;2.00;;;;;20.83;35.42;102193.41;5064253;28;51132;-48
2022/02/01 07:52:51;;;;;;;;;3.25;2.00;;;;;20.90;35.23;102185.22;5054942;28;51639;-47
2022/02/01 07:55:16;;;;;;;;;4.00;3.00;;;;;20.95;35.61;102188.28;5058201;28;51925;-46
2022/02/01 07:57:42;;;;;;;;;3.50;1.50;;;;;21.00;35.55;102183.03;5078483;27;51089;-47
2022/02/01 08:00:09;;;;;;;;;4.00;2.00;;;;;21.03;35.45;102182.63;5056297;28;51111;-46
2022/02/01 08:02:35;;;;;;;;;4.50;2.25;;;;;21.01;35.40;102170.97;5061347;28;51047;-45
2022/02/01 08:05:01;;;;;;;;;6.00;2.00;;;;;20.99;35.36;102162.03;5064420;28;51130;-44
2022/02/01 08:07:27;;;;;;;;;2.25;2.25;;;;;20.95;34.99;102163.50;5059905;28;51358;-44
2022/02/01 08:09:56;;;;;;;;;2.00;2.00;;;;;20.90;35.32;102161.28;5071004;27;51181;-46
2022/02/01 08:20:09;;;;;;;;;3.25;2.00;;;;;20.71;35.26;102156.41;5063214;28;51140;-45
2022/02/01 08:23:00;;;;;;;;;2.75;1.75;;;;;20.66;35.12;102148.72;5067413;28;50974;-44
2022/02/01 08:25:24;;;;;;;;;4.25;2.50;;;;;20.62;34.75;102143.78;5063724;28;51235;-45
2022/02/01 08:27:52;;;;;;;;;1.00;1.00;;;;;20.58;34.75;102135.06;5069877;28;51521;-44
2022/02/01 08:30:18;;;;;;;;;3.50;3.00;;;;;20.54;34.94;102155.78;5059216;28;51089;-45
2022/02/01 08:32:44;;;;;;;;;4.00;3.50;;;;;20.50;34.83;102143.41;5064298;28;51175;-48
2022/02/01 08:35:09;;;;;;;;;3.00;2.75;;;;;20.45;35.10;102138.50;5063880;27;52314;-44
2022/02/01 08:37:35;;;;;;;;;3.00;3.00;;;;;20.41;34.76;102134.38;5060483;28;50859;-46
2022/02/01 08:40:01;;;;;;;;;3.00;2.00;;;;;20.38;35.05;102136.66;5060568;28;52453;-46
2022/02/01 08:42:27;;;;;;;;;2.00;2.00;;;;;20.34;34.76;102136.19;5070846;28;51018;-48
2022/02/01 08:44:53;;;;;;;;;2.00;2.00;;;;;20.32;34.89;102118.13;5069067;28;51216;-49
2022/02/01 08:47:19;;;;;;;;;2.75;2.00;;;;;20.28;35.12;102117.69;5064691;28;51124;-44
2022/02/01 08:49:45;;;;;;;;;5.00;4.00;;;;;20.24;34.80;102108.13;5081309;27;51089;-47
2022/02/01 08:52:15;;;;;;;;;4.00;2.00;;;;;20.23;35.11;102119.31;5063278;28;51254;-47
2022/02/01 08:54:40;;;;;;;;;2.00;2.00;;;;;20.19;35.21;102105.91;5070532;28;52220;-48
2022/02/01 08:57:23;;;;;;;;;4.50;2.00;;;;;20.17;34.74;102102.50;5064992;28;51182;-46
2022/02/01 08:59:53;;;;;;;;;2.50;2.00;;;;;20.14;35.15;102107.53;5064612;28;51081;-47
2022/02/01 09:02:23;;;;;;;;;3.00;3.00;;;;;20.12;34.96;102101.38;5078432;27;51443;-47
2022/02/01 09:04:49;;;;;;;;;4.25;2.75;;;;;20.08;35.38;102097.28;5065868;28;52008;-46
2022/02/01 09:07:15;;;;;;;;;2.25;2.25;;;;;20.08;34.97;102098.13;5064139;28;51081;-47
2022/02/01 09:09:40;;;;;;;;;2.25;2.25;;;;;20.05;34.90;102103.19;5066163;28;51342;-46
2022/02/01 09:12:06;;;;;;;;;1.75;1.75;;;;;20.04;35.21;102093.22;5064241;28;51536;-45
2022/02/01 09:14:32;;;;;;;;;3.00;3.00;;;;;20.02;35.17;102087.06;5065710;27;51802;-45
2022/02/01 09:17:00;;;;;;;;;3.25;2.25;;;;;19.99;35.13;102079.16;5064896;28;51109;-45
2022/02/01 09:19:26;;;;;;;;;5.00;4.00;;;;;19.98;35.23;102078.31;5060154;28;51162;-46
2022/02/01 09:21:52;;;;;;;;;2.50;2.00;;;;;19.97;35.12;102073.84;5067663;28;51128;-47
2022/02/01 09:24:18;;;;;;;;;2.00;2.00;;;;;19.95;35.08;102073.19;5066845;27;51078;-48
2022/02/01 09:26:43;;;;;;;;;4.25;3.50;;;;;19.93;35.21;102075.28;5062177;28;51308;-47
2022/02/01 09:29:11;;;;;;;;;3.00;1.75;;;;;19.91;35.36;102063.63;5086823;27;51626;-45
2022/02/01 09:31:37;;;;;;;;;3.25;2.00;;;;;19.91;35.42;102077.38;5064549;28;51388;-47
2022/02/01 09:34:04;;;;;;;;;3.00;1.75;;;;;19.88;35.48;102072.25;5069865;28;51098;-48
2022/02/01 09:36:29;;;;;;;;;4.75;4.00;;;;;19.88;35.05;102053.00;5059856;28;51230;-45
2022/02/01 09:38:56;;;;;;;;;2.75;2.75;;;;;19.85;35.53;102056.97;5063126;28;51000;-45
2022/02/01 09:41:23;;;;;;;;;4.00;3.00;;;;;19.84;35.57;102052.53;5061541;28;50841;-45
2022/02/01 09:43:48;;;;;;;;;3.25;2.50;;;;;19.83;35.52;102059.06;5062175;28;51918;-45
2022/02/01 09:46:14;;;;;;;;;2.00;2.00;;;;;19.82;35.43;102056.50;5062230;28;51068;-45
2022/02/01 09:48:40;;;;;;;;;4.00;2.75;;;;;19.80;35.44;102040.22;5057513;28;51407;-45
2022/02/01 09:51:08;;;;;;;;;3.50;2.50;;;;;19.79;35.69;102046.72;5066102;28;50855;-46
2022/02/01 09:53:38;;;;;;;;;6.50;3.25;;;;;19.79;35.31;102062.38;5066159;28;52185;-47
2022/02/01 09:56:05;;;;;;;;;4.75;3.25;;;;;19.77;35.63;102062.56;5064653;28;51080;-50
2022/02/01 09:58:32;;;;;;;;;2.25;2.25;;;;;19.76;35.69;102057.25;5068729;28;51140;-48
2022/02/01 10:00:58;;;;;;;;;3.50;2.00;;;;;19.75;35.61;102059.16;5060840;28;51037;-46
2022/02/01 10:03:24;;;;;;;;;2.00;2.00;;;;;19.76;35.54;102054.50;5069453;28;52359;-47
2022/02/01 10:06:09;;;;;;;;;6.00;3.00;;;;;19.74;35.53;102062.09;5064854;28;51206;-48
2022/02/01 10:08:36;;;;;;;;;2.00;2.00;;;;;19.72;35.55;102067.78;5058914;28;51136;-48
2022/02/01 10:11:04;;;;;;;;;3.75;2.00;;;;;19.72;35.61;102064.19;5069812;28;51288;-49
2022/02/01 10:13:34;;;;;;;;;3.00;3.00;;;;;19.71;35.41;102057.84;5067581;28;53852;-48
2022/02/01 10:16:12;;;;;;;;;2.50;2.00;;;;;19.70;35.73;102058.88;5068445;28;51425;-48
2022/02/01 10:18:37;;;;;;;;;2.25;2.25;;;;;19.69;35.81;102062.63;5059057;28;51075;-47
2022/02/01 10:21:10;;;;;;;;;3.00;2.00;;;;;19.69;35.72;102048.03;5069647;28;51011;-54
2022/02/01 10:23:39;;;;;;;;;4.00;3.00;;;;;19.67;35.68;102042.72;5069263;28;51623;-45
2022/02/01 10:26:10;;;;;;;;;3.25;2.00;;;;;19.67;35.77;102053.72;5060833;28;51060;-46
2022/02/01 10:28:53;;;;;;;;;2.00;2.00;;;;;19.65;35.83;102046.72;5067479;27;51154;-50
2022/02/01 10:31:25;;;;;;;;;3.00;3.00;;;;;19.65;35.53;102049.47;5065693;28;51098;-51
2022/02/01 10:36:17;;;;;;;;;4.50;4.00;;;;;19.63;35.69;102040.56;5066842;28;51246;-46
2022/02/01 10:38:43;;;;;;;;;3.00;3.00;;;;;19.62;36.04;102038.84;5063772;28;51278;-48
2022/02/01 10:41:15;;;;;;;;;3.50;3.50;;;;;19.62;36.01;102039.72;5050437;28;51275;-50
2022/02/01 10:43:41;;;;;;;;;3.50;2.50;;;;;19.62;35.58;102038.84;5070374;28;51377;-49
2022/02/01 10:46:09;;;;;;;;;3.50;3.00;;;;;19.62;35.82;102033.38;5089150;27;51015;-48
2022/02/01 10:48:36;;;;;;;;;2.00;2.00;;;;;19.59;35.85;102018.97;5051168;28;51098;-48
2022/02/01 10:51:02;;;;;;;;;2.25;2.00;;;;;19.59;35.86;102029.94;5055638;28;51511;-46
2022/02/01 10:53:28;;;;;;;;;3.25;1.00;;;;;19.59;35.81;102018.97;5063799;28;51036;-46
2022/02/01 10:55:54;;;;;;;;;5.00;3.00;;;;;19.63;35.63;102021.31;5060013;28;51157;-48
2022/02/01 10:58:20;;;;;;;;;5.00;4.00;;;;;19.70;35.79;102016.78;5055526;28;51673;-46
2022/02/01 11:00:46;;;;;;;;;2.50;2.50;;;;;19.77;35.59;102009.47;5071011;28;51096;-49
2022/02/01 11:03:14;;;;;;;;;4.25;3.50;;;;;19.87;35.88;102010.88;5065474;28;51910;-47
2022/02/01 11:05:49;;;;;;;;;4.75;3.00;;;;;19.96;35.74;101997.03;5065430;27;51134;-47
2022/02/01 11:08:16;;;;;;;;;3.25;3.25;;;;;20.04;35.40;101981.28;5068592;28;51066;-45
2022/02/01 11:10:46;;;;;;;;;3.75;3.25;;;;;20.12;35.30;101981.19;5063724;27;50972;-46
2022/02/01 11:13:12;;;;;;;;;0.00;0.00;;;;;20.22;35.52;101978.13;5067395;28;52178;-46
2022/02/01 11:15:38;;;;;;;;;3.00;3.00;;;;;20.29;35.58;101975.44;5065362;28;50902;-46
2022/02/01 11:18:23;;;;;;;;;3.75;3.75;;;;;20.36;34.96;101976.38;5063378;28;51068;-48
2022/02/01 11:20:49;;;;;;;;;3.00;3.00;;;;;20.45;35.09;101964.25;5057869;28;51237;-47
2022/02/01 11:23:19;;;;;;;;;3.25;2.00;;;;;20.53;35.14;101955.88;5061682;28;52720;-51
2022/02/01 11:25:47;;;;;;;;;5.00;4.00;;;;;20.61;35.21;101976.88;5064098;28;51289;-48
2022/02/01 11:31:28;;;;;;;;;3.00;3.00;;;;;20.75;35.21;101965.81;5065019;27;51213;-47
2022/02/01 11:33:55;;;;;;;;;3.00;3.00;;;;;20.83;34.93;101972.22;5060134;28;51268;-51
2022/02/01 11:36:21;;;;;;;;;3.00;2.00;;;;;20.89;34.77;101968.69;5068490;27;51045;-45
2022/02/01 11:38:55;;;;;;;;;3.00;3.00;;;;;20.97;34.47;101968.56;5065442;28;50897;-48
2022/02/01 11:41:38;;;;;;;;;2.00;2.00;;;;;21.04;35.08;101970.31;5060388;28;51037;-47
2022/02/01 11:44:12;;;;;;;;;3.00;3.00;;;;;21.09;34.81;101953.19;5057597;28;51079;-45
2022/02/01 11:46:39;;;;;;;;;4.75;3.00;;;;;21.12;34.83;101949.19;5064031;28;51605;-45
2022/02/01 11:49:06;;;;;;;;;4.00;4.00;;;;;21.11;34.47;101948.31;5068851;28;51164;-47
2022/02/01 11:51:32;;;;;;;;;4.00;3.00;;;;;21.11;34.78;101953.84;5059148;28;51113;-47
2022/02/01 11:53:59;;;;;;;;;4.00;3.00;;;;;21.12;34.90;101950.03;5064804;27;51692;-46
2022/02/01 11:56:32;;;;;;;;;8.25;5.00;;;;;21.11;35.44;101945.56;5064631;28;51579;-47
2022/02/01 11:59:00;;;;;;;;;5.75;3.75;;;;;21.10;35.27;101945.78;5064408;28;51131;-45
2022/02/01 12:01:31;;;;;;;;;4.75;4.50;;;;;21.15;35.48;101946.88;5058676;28;51008;-46
2022/02/01 12:04:12;;;;;;;;;5.00;5.00;;;;;21.22;35.16;101950.53;5062796;28;51743;-46
2022/02/01 12:06:54;;;;;;;;;4.25;4.25;;;;;21.29;35.27;101950.63;5064888;28;50921;-45
2022/02/01 12:09:22;;;;;;;;;5.25;3.50;;;;;21.38;35.27;101949.41;5057663;28;51067;-47
2022/02/01 12:11:54;;;;;;;;;3.25;3.00;;;;;21.45;34.81;101949.44;5058241;28;51380;-48
2022/02/01 12:14:19;;;;;;;;;7.00;4.75;;;;;21.51;35.07;101948.66;5066420;28;52121;-47
2022/02/01 12:16:49;;;;;;;;;4.00;3.75;;;;;21.53;35.10;101941.88;5067679;28;50923;-49
2022/02/01 12:19:19;;;;;;;;;6.75;5.25;;;;;21.56;34.59;101937.84;5063868;28;51216;-48
2022/02/01 12:21:51;;;;;;;;;8.50;5.50;;;;;21.57;34.83;101945.06;5054959;28;51168;-46
2022/02/01 12:24:16;;;;;;;;;3.00;3.00;;;;;21.56;34.47;101935.94;5064063;28;50976;-45
2022/02/01 12:26:42;;;;;;;;;6.50;2.50;;;;;21.53;34.81;101933.59;5069951;28;51083;-47
2022/02/01 12:29:10;;;;;;;;;4.50;4.25;;;;;21.50;35.11;101930.41;5065846;28;50948;-48
2022/02/01 12:31:38;;;;;;;;;3.25;2.50;;;;;21.46;34.82;101910.66;5072156;28;50996;-48
2022/02/01 12:34:06;;;;;;;;;1.25;1.25;;;;;21.43;35.25;101908.31;5087594;27;51040;-47
2022/02/01 12:36:38;;;;;;;;;6.00;5.00;;;;;21.40;35.21;101894.94;5063537;28;51259;-46
2022/02/01 12:39:29;;;;;;;;;4.75;3.00;;;;;21.41;34.96;101901.28;5057308;28;50995;-45
2022/02/01 12:46:54;;;;;;;;;2.00;2.00;;;;;21.55;35.28;101895.63;5061856;28;51186;-48
2022/02/01 12:49:44;;;;;;;;;3.50;3.50;;;;;21.60;34.69;101884.00;5070478;27;51144;-45
2022/02/01 12:52:22;;;;;;;;;4.00;3.00;;;;;21.64;34.64;101878.94;5066768;28;51131;-44
2022/02/01 12:54:56;;;;;;;;;2.75;2.75;;;;;21.63;35.21;101878.09;5066068;28;51936;-45
2022/02/01 12:57:21;;;;;;;;;4.25;4.25;;;;;21.61;35.00;101866.41;5061960;28;52747;-45
2022/02/01 12:59:52;;;;;;;;;5.25;3.00;;;;;21.57;34.55;101863.22;5058256;28;51061;-48
2022/02/01 13:02:26;;;;;;;;;4.75;3.00;;;;;21.52;34.61;101862.97;5067479;28;51318;-45
2022/02/01 13:05:00;;;;;;;;;4.00;3.75;;;;;21.47;34.79;101859.16;5061636;28;53041;-47
2022/02/01 13:07:31;;;;;;;;;3.00;3.00;;;;;21.42;35.24;101861.66;5063524;28;52163;-46
2022/02/01 13:13:05;;;;;;;;;5.00;4.00;;;;;21.33;35.17;101871.97;5064013;28;51040;-45